createdAt,value
2022-08-12T00:00:09.763Z,13.54
2022-08-12T00:02:55.651Z,13.58
2022-08-12T00:05:56.378Z,13.61
2022-08-12T00:08:48.952Z,13.56
2022-08-12T00:11:34.227Z,13.37
2022-08-12T00:14:20.033Z,13.45
2022-08-12T00:17:06.850Z,13.39
2022-08-12T00:19:52.467Z,13.32
2022-08-12T00:22:39.036Z,13.23
2022-08-12T00:25:55.754Z,13.21
2022-08-12T00:28:31.934Z,13.08
2022-08-12T00:31:17.324Z,13.09
2022-08-12T00:34:02.942Z,13.06
2022-08-12T00:36:50.676Z,13.06
2022-08-12T00:39:36.141Z,12.92
2022-08-12T00:42:12.619Z,12.93
2022-08-12T00:44:44.393Z,12.98
2022-08-12T00:47:24.793Z,12.81
2022-08-12T00:49:54.663Z,12.77
2022-08-12T00:52:22.910Z,12.67
2022-08-12T00:54:49.614Z,12.73
2022-08-12T00:57:21.971Z,12.66
2022-08-12T00:59:53.201Z,12.72
2022-08-12T01:02:35.087Z,12.73
2022-08-12T01:05:25.558Z,12.57
2022-08-12T01:08:11.753Z,12.52
2022-08-12T01:11:02.225Z,12.36
2022-08-12T01:13:31.443Z,12.46
2022-08-12T01:16:00.802Z,12.42
2022-08-12T01:18:29.600Z,12.44
2022-08-12T01:21:27.331Z,12.43
2022-08-12T01:24:39.330Z,12.36
2022-08-12T01:27:08.194Z,12.31
2022-08-12T01:29:41.895Z,12.34
2022-08-12T01:32:12.005Z,12.30
2022-08-12T01:34:41.561Z,12.25
2022-08-12T01:37:09.844Z,12.25
2022-08-12T01:40:34.535Z,12.31
2022-08-12T01:42:43.489Z,12.12
2022-08-12T01:45:12.604Z,12.15
2022-08-12T01:48:05.069Z,12.10
2022-08-12T01:50:45.180Z,12.03
2022-08-12T01:53:16.152Z,12.00
2022-08-12T01:55:46.534Z,12.04
2022-08-12T01:59:12.146Z,12.14
2022-08-12T02:01:41.735Z,11.99
2022-08-12T02:04:46.245Z,11.97
2022-08-12T02:07:54.171Z,12.00
2022-08-12T02:10:56.939Z,11.93
2022-08-12T02:13:49.059Z,11.79
2022-08-12T02:16:47.060Z,11.91
2022-08-12T02:19:28.729Z,11.93
2022-08-12T02:22:04.937Z,11.70
2022-08-12T02:24:34.288Z,11.65
2022-08-12T02:27:02.009Z,11.56
2022-08-12T02:29:29.713Z,11.45
2022-08-12T02:31:57.578Z,11.48
2022-08-12T02:34:24.655Z,11.38
2022-08-12T02:36:56.090Z,11.37
2022-08-12T02:39:28.507Z,11.37
2022-08-12T02:42:00.556Z,11.36
2022-08-12T02:44:30.560Z,11.34
2022-08-12T02:47:01.313Z,11.38
2022-08-12T02:49:35.092Z,11.26
2022-08-12T02:52:02.999Z,11.30
2022-08-12T02:54:30.059Z,11.29
2022-08-12T02:56:56.853Z,11.28
2022-08-12T02:59:26.593Z,11.23
2022-08-12T03:02:03.690Z,11.12
2022-08-12T03:04:43.901Z,11.13
2022-08-12T03:07:56.012Z,11.23
2022-08-12T03:10:25.137Z,11.12
2022-08-12T03:13:07.499Z,11.08
2022-08-12T03:15:36.021Z,11.05
2022-08-12T03:18:28.575Z,10.97
2022-08-12T03:20:57.441Z,10.95
2022-08-12T03:23:30.114Z,10.88
2022-08-12T03:26:00.920Z,10.95
2022-08-12T03:28:49.200Z,10.95
2022-08-12T03:31:18.281Z,10.91
2022-08-12T03:34:01.255Z,10.94
2022-08-12T03:36:35.649Z,11.03
2022-08-12T03:39:18.204Z,11.09
2022-08-12T03:42:22.043Z,11.15
2022-08-12T03:45:42.065Z,10.90
2022-08-12T03:48:37.361Z,10.88
2022-08-12T03:51:23.120Z,10.78
2022-08-12T03:54:11.046Z,10.89
2022-08-12T03:56:57.151Z,10.85
2022-08-12T03:59:42.479Z,10.83
2022-08-12T04:02:14.661Z,10.99
2022-08-12T04:04:45.852Z,10.82
2022-08-12T04:07:14.117Z,11.00
2022-08-12T04:09:43.061Z,10.92
2022-08-12T04:12:32.859Z,10.90
2022-08-12T04:15:10.022Z,10.89
2022-08-12T04:17:37.728Z,10.97
2022-08-12T04:20:24.548Z,10.99
2022-08-12T04:22:54.532Z,11.13
2022-08-12T04:25:24.446Z,11.07
2022-08-12T04:27:51.309Z,10.99
2022-08-12T04:30:32.331Z,11.11
2022-08-12T04:33:00.380Z,11.03
2022-08-12T04:35:27.629Z,11.06
2022-08-12T04:37:58.648Z,11.09
2022-08-12T04:40:30.501Z,11.18
2022-08-12T04:42:57.684Z,11.23
2022-08-12T04:45:25.173Z,11.12
2022-08-12T04:47:52.501Z,11.21
2022-08-12T04:50:34.803Z,11.11
2022-08-12T04:53:08.233Z,11.37
2022-08-12T04:55:37.656Z,11.38
2022-08-12T04:58:04.907Z,11.23
2022-08-12T05:00:31.776Z,11.20
2022-08-12T05:02:58.729Z,11.37
2022-08-12T05:05:27.233Z,11.37
2022-08-12T05:07:55.124Z,11.37
2022-08-12T05:10:33.741Z,11.54
2022-08-12T05:13:05.891Z,11.45
2022-08-12T05:15:32.841Z,11.45
2022-08-12T05:18:19.411Z,11.52
2022-08-12T05:20:48.556Z,11.39
2022-08-12T05:23:20.266Z,11.53
2022-08-12T05:25:52.176Z,11.69
2022-08-12T05:28:19.111Z,11.73
2022-08-12T05:30:46.301Z,11.82
2022-08-12T05:33:15.821Z,11.90
2022-08-12T05:35:45.091Z,12.11
2022-08-12T05:38:38.511Z,12.32
2022-08-12T05:41:19.337Z,12.37
2022-08-12T05:43:57.912Z,12.76
2022-08-12T05:46:26.722Z,13.14
2022-08-12T05:48:54.867Z,13.38
2022-08-12T05:51:41.394Z,13.54
2022-08-12T05:54:09.753Z,13.82
2022-08-12T05:56:36.909Z,14.09
2022-08-12T05:59:09.622Z,14.44
2022-08-12T06:02:11.684Z,14.92
2022-08-12T06:04:24.321Z,15.37
2022-08-12T06:06:53.676Z,15.70
2022-08-12T06:09:22.834Z,16.02
2022-08-12T06:12:04.244Z,16.31
2022-08-12T06:14:37.917Z,16.62
2022-08-12T06:17:08.675Z,16.62
2022-08-12T06:20:27.469Z,16.56
2022-08-12T06:22:22.832Z,16.67
2022-08-12T06:24:50.053Z,17.05
2022-08-12T06:27:19.031Z,17.46
2022-08-12T06:30:08.936Z,17.78
2022-08-12T06:32:33.093Z,18.41
2022-08-12T06:35:25.896Z,18.59
2022-08-12T06:37:56.379Z,19.27
2022-08-12T06:40:44.120Z,19.46
2022-08-12T06:43:11.094Z,19.69
2022-08-12T06:45:45.212Z,19.48
2022-08-12T06:48:13.550Z,19.14
2022-08-12T06:50:40.600Z,18.96
2022-08-12T06:53:09.492Z,19.08
2022-08-12T06:55:36.700Z,18.96
2022-08-12T06:58:10.572Z,18.89
2022-08-12T07:00:38.279Z,19.06
2022-08-12T07:03:22.413Z,18.91
2022-08-12T07:05:50.842Z,18.81
2022-08-12T07:08:18.573Z,18.89
2022-08-12T07:10:57.511Z,19.01
2022-08-12T07:13:25.400Z,19.04
2022-08-12T07:15:55.660Z,18.92
2022-08-12T07:18:32.948Z,18.95
2022-08-12T07:21:02.633Z,18.81
2022-08-12T07:23:31.141Z,19.16
2022-08-12T07:25:59.269Z,19.28
2022-08-12T07:28:29.485Z,19.73
2022-08-12T07:30:58.063Z,20.20
2022-08-12T07:33:31.373Z,20.57
2022-08-12T07:36:00.212Z,20.75
2022-08-12T07:38:36.693Z,20.71
2022-08-12T07:41:07.823Z,21.03
2022-08-12T07:43:45.020Z,21.21
2022-08-12T07:46:15.482Z,21.64
2022-08-12T07:48:49.087Z,22.09
2022-08-12T07:51:24.852Z,22.49
2022-08-12T07:54:00.886Z,22.83
2022-08-12T07:56:31.708Z,22.79
2022-08-12T07:58:59.473Z,23.13
2022-08-12T08:01:27.102Z,23.66
2022-08-12T08:04:18.517Z,23.73
2022-08-12T08:06:48.740Z,23.88
2022-08-12T08:09:17.761Z,24.13
2022-08-12T08:12:03.421Z,24.58
2022-08-12T08:14:31.931Z,24.66
2022-08-12T08:17:00.682Z,24.72
2022-08-12T08:19:29.424Z,25.26
2022-08-12T08:21:58.910Z,25.31
2022-08-12T08:24:28.439Z,25.61
2022-08-12T08:26:59.086Z,26.20
2022-08-12T08:29:25.941Z,26.41
2022-08-12T08:32:01.119Z,25.71
2022-08-12T08:34:53.938Z,25.54
2022-08-12T08:37:17.430Z,25.32
2022-08-12T08:39:44.376Z,25.76
2022-08-12T08:42:30.151Z,25.73
2022-08-12T08:44:58.942Z,25.89
2022-08-12T08:47:26.170Z,26.01
2022-08-12T08:49:53.211Z,25.90
2022-08-12T08:52:39.928Z,25.59
2022-08-12T08:55:14.122Z,25.43
2022-08-12T08:57:44.710Z,25.46
2022-08-12T09:00:22.100Z,25.80
2022-08-12T09:02:59.225Z,25.98
2022-08-12T09:05:28.032Z,26.16
2022-08-12T09:08:15.458Z,25.64
2022-08-12T09:10:49.579Z,25.84
2022-08-12T09:13:29.007Z,26.29
2022-08-12T09:19:08.002Z,26.50
2022-08-12T09:21:55.469Z,25.91
2022-08-12T09:24:22.567Z,26.14
2022-08-12T09:26:49.863Z,25.74
2022-08-12T09:30:11.627Z,26.02
2022-08-12T09:32:31.446Z,26.57
2022-08-12T09:34:57.493Z,26.26
2022-08-12T09:37:26.869Z,26.54
2022-08-12T09:40:05.845Z,25.82
2022-08-12T09:43:17.515Z,26.21
2022-08-12T09:46:20.690Z,25.98
2022-08-12T09:48:36.781Z,26.02
2022-08-12T09:51:11.015Z,26.24
2022-08-12T09:54:08.789Z,26.08
2022-08-12T09:57:00.468Z,26.19
2022-08-12T10:00:15.704Z,26.79
2022-08-12T10:02:45.849Z,26.33
2022-08-12T10:05:00.629Z,26.56
2022-08-12T10:07:39.617Z,26.54
2022-08-12T10:10:08.071Z,26.75
2022-08-12T10:13:11.179Z,27.02
2022-08-12T10:16:00.958Z,27.37
2022-08-12T10:18:26.619Z,27.66
2022-08-12T10:20:53.446Z,27.27
2022-08-12T10:23:20.332Z,27.40
2022-08-12T10:26:39.744Z,26.89
2022-08-12T10:30:38.359Z,26.21
2022-08-12T10:32:45.315Z,26.98
2022-08-12T10:35:09.714Z,26.94
2022-08-12T10:38:33.459Z,27.21
2022-08-12T10:40:31.476Z,27.33
2022-08-12T10:43:18.073Z,27.23
2022-08-12T10:45:47.337Z,26.66
2022-08-12T10:48:26.529Z,27.24
2022-08-12T10:52:03.496Z,26.96
2022-08-12T10:54:02.731Z,26.70
2022-08-12T10:56:34.566Z,26.79
2022-08-12T10:59:10.830Z,27.24
2022-08-12T11:04:17.430Z,27.17
2022-08-12T11:04:39.504Z,27.26
2022-08-12T11:08:33.860Z,27.47
2022-08-12T11:10:01.672Z,27.68
2022-08-12T11:12:56.971Z,27.20
2022-08-12T11:15:33.331Z,26.98
2022-08-12T11:18:07.891Z,26.65
2022-08-12T11:20:39.375Z,27.44
2022-08-12T11:23:24.954Z,28.19
2022-08-12T11:25:57.296Z,28.42
2022-08-12T11:28:33.529Z,28.67
2022-08-12T11:31:03.578Z,28.19
2022-08-12T11:34:04.728Z,28.32
2022-08-12T11:36:18.016Z,27.53
2022-08-12T11:38:50.948Z,27.51
2022-08-12T11:41:31.000Z,27.50
2022-08-12T11:44:43.157Z,27.19
2022-08-12T11:46:52.878Z,27.25
2022-08-12T11:49:31.283Z,26.29
2022-08-12T11:52:00.472Z,26.61
2022-08-12T11:54:29.653Z,26.57
2022-08-12T11:56:59.588Z,26.46
2022-08-12T12:02:20.713Z,27.52
2022-08-12T12:04:52.683Z,27.48
2022-08-12T12:08:37.187Z,27.20
2022-08-12T12:10:16.649Z,27.33
2022-08-12T12:12:49.412Z,27.30
2022-08-12T12:15:24.909Z,27.18
2022-08-12T12:17:55.847Z,26.67
2022-08-12T12:20:26.158Z,26.59
2022-08-12T12:22:54.595Z,26.65
2022-08-12T12:25:21.438Z,26.28
2022-08-12T12:28:08.331Z,26.84
2022-08-12T12:30:55.177Z,27.30
2022-08-12T12:33:22.420Z,27.47
2022-08-12T12:36:17.102Z,27.76
2022-08-12T12:38:37.131Z,27.74
2022-08-12T12:41:14.349Z,27.58
2022-08-12T12:43:45.071Z,26.69
2022-08-12T12:46:30.709Z,27.04
2022-08-12T12:48:57.659Z,26.76
2022-08-12T12:52:17.228Z,26.43
2022-08-12T12:54:11.639Z,26.04
2022-08-12T12:56:42.725Z,26.19
2022-08-12T12:59:33.793Z,25.65
2022-08-12T13:01:59.525Z,25.48
2022-08-12T13:04:27.324Z,25.64
2022-08-12T13:06:54.156Z,25.56
2022-08-12T13:09:22.327Z,25.82
2022-08-12T13:11:53.126Z,25.99
2022-08-12T13:14:29.416Z,25.78
2022-08-12T13:17:02.587Z,25.88
2022-08-12T13:19:37.721Z,25.91
2022-08-12T13:22:20.726Z,25.75
2022-08-12T13:24:56.858Z,25.71
2022-08-12T13:27:34.887Z,25.57
2022-08-12T13:30:12.110Z,26.06
2022-08-12T13:32:40.882Z,26.42
2022-08-12T13:35:20.172Z,26.13
2022-08-12T13:37:58.395Z,25.68
2022-08-12T13:40:27.643Z,26.27
2022-08-12T13:42:58.164Z,27.03
2022-08-12T13:45:27.127Z,28.15
2022-08-12T13:48:04.896Z,28.66
2022-08-12T13:50:33.317Z,29.27
2022-08-12T13:53:06.189Z,29.93
2022-08-12T13:55:50.034Z,29.67
2022-08-12T13:58:27.998Z,28.58
2022-08-12T14:00:56.873Z,28.54
2022-08-12T14:03:28.254Z,27.92
2022-08-12T14:06:15.537Z,27.51
2022-08-12T14:08:43.727Z,28.10
2022-08-12T14:11:12.364Z,28.45
2022-08-12T14:14:03.905Z,28.56
2022-08-12T14:16:37.894Z,29.69
2022-08-12T14:19:22.646Z,30.49
2022-08-12T14:21:59.847Z,30.74
2022-08-12T14:24:40.782Z,30.84
2022-08-12T14:27:10.349Z,29.85
2022-08-12T14:30:04.291Z,28.54
2022-08-12T14:32:39.985Z,28.50
2022-08-12T14:35:09.358Z,28.62
2022-08-12T14:37:57.911Z,28.98
2022-08-12T14:40:28.030Z,29.42
2022-08-12T14:42:57.022Z,29.01
2022-08-12T14:45:37.067Z,29.22
2022-08-12T14:48:13.322Z,28.77
2022-08-12T14:52:16.190Z,28.46
2022-08-12T14:59:57.256Z,27.26
2022-08-12T15:02:26.650Z,26.99
2022-08-12T15:04:59.546Z,26.88
2022-08-12T15:07:33.646Z,27.45
2022-08-12T15:10:14.433Z,27.43
2022-08-12T15:12:41.453Z,27.24
2022-08-12T15:15:09.161Z,27.49
2022-08-12T15:17:38.631Z,27.19
2022-08-12T15:20:31.328Z,27.07
2022-08-12T15:22:57.879Z,27.08
2022-08-12T15:25:25.131Z,26.91
2022-08-12T15:28:04.600Z,26.78
2022-08-12T15:30:37.218Z,26.89
2022-08-12T15:33:12.976Z,26.83
2022-08-12T15:35:53.015Z,26.59
2022-08-12T15:38:24.629Z,26.81
2022-08-12T15:40:52.749Z,26.84
2022-08-12T15:43:50.914Z,26.89
2022-08-12T15:46:15.170Z,26.86
2022-08-12T15:48:47.114Z,26.98
2022-08-12T15:51:57.379Z,26.82
2022-08-12T15:54:35.300Z,26.76
2022-08-12T15:57:05.993Z,26.53
2022-08-12T16:00:00.166Z,26.45
2022-08-12T16:02:26.702Z,26.38
2022-08-12T16:04:54.470Z,26.60
2022-08-12T16:07:30.206Z,26.62
2022-08-12T16:10:06.986Z,26.08
2022-08-12T16:12:54.461Z,26.49
2022-08-12T16:15:26.337Z,26.35
2022-08-12T16:18:15.287Z,26.34
2022-08-12T16:20:46.435Z,26.30
2022-08-12T16:23:36.524Z,26.04
2022-08-12T16:26:14.514Z,25.97
2022-08-12T16:28:42.045Z,25.80
2022-08-12T16:31:14.431Z,25.68
2022-08-12T16:33:59.535Z,25.58
2022-08-12T16:36:30.255Z,25.36
2022-08-12T16:38:57.581Z,25.13
2022-08-12T16:41:38.245Z,24.86
2022-08-12T16:44:08.272Z,24.76
2022-08-12T16:46:36.289Z,24.62
2022-08-12T16:49:13.384Z,24.59
2022-08-12T16:51:46.595Z,24.27
2022-08-12T16:54:16.410Z,24.66
2022-08-12T16:56:55.249Z,24.55
2022-08-12T16:59:53.443Z,24.41
2022-08-12T17:02:18.048Z,23.74
2022-08-12T17:05:04.749Z,23.59
2022-08-12T17:07:43.441Z,23.35
2022-08-12T17:10:18.619Z,23.19
2022-08-12T17:13:01.426Z,23.05
2022-08-12T17:15:56.693Z,22.92
2022-08-12T17:18:43.567Z,23.05
2022-08-12T17:21:17.570Z,22.77
2022-08-12T17:23:53.635Z,22.55
2022-08-12T17:26:30.808Z,22.19
2022-08-12T17:28:59.993Z,21.89
2022-08-12T17:31:59.320Z,21.83
2022-08-12T17:34:38.306Z,21.70
2022-08-12T17:37:06.484Z,21.49
2022-08-12T17:40:06.438Z,21.14
2022-08-12T17:42:32.816Z,20.91
2022-08-12T17:45:17.084Z,20.68
2022-08-12T17:48:05.473Z,20.74
2022-08-12T17:50:38.826Z,20.55
2022-08-12T17:53:10.232Z,20.48
2022-08-12T17:55:47.356Z,20.43
2022-08-12T17:58:35.792Z,20.53
2022-08-12T18:01:10.895Z,20.44
2022-08-12T18:04:05.113Z,20.20
2022-08-12T18:06:32.611Z,20.09
2022-08-12T18:09:09.669Z,20.07
2022-08-12T18:12:06.069Z,19.86
2022-08-12T18:14:37.137Z,19.55
2022-08-12T18:17:08.518Z,19.46
2022-08-12T18:20:05.338Z,19.30
2022-08-12T18:22:30.622Z,19.12
2022-08-12T18:25:05.033Z,19.03
2022-08-12T18:27:44.473Z,19.02
2022-08-12T18:30:16.309Z,19.04
2022-08-12T18:32:59.101Z,19.03
2022-08-12T18:35:47.669Z,18.99
2022-08-12T18:38:19.643Z,18.96
2022-08-12T18:41:09.571Z,18.89
2022-08-12T18:43:58.706Z,18.97
2022-08-12T18:46:40.862Z,18.66
2022-08-12T18:49:17.852Z,18.51
2022-08-12T18:52:02.351Z,18.37
2022-08-12T18:54:34.688Z,18.41
2022-08-12T18:57:06.614Z,18.32
2022-08-12T19:00:00.710Z,18.10
2022-08-12T19:02:40.087Z,17.92
2022-08-12T19:05:11.223Z,17.84
2022-08-12T19:07:49.354Z,17.77
2022-08-12T19:10:27.110Z,17.74
2022-08-12T19:13:24.008Z,17.77
2022-08-12T19:15:57.736Z,17.67
2022-08-12T19:18:31.395Z,17.59
2022-08-12T19:21:06.409Z,17.71
2022-08-12T19:23:40.918Z,17.31
2022-08-12T19:26:12.965Z,17.32
2022-08-12T19:28:41.754Z,17.34
2022-08-12T19:31:55.542Z,17.38
2022-08-12T19:37:38.753Z,17.25
2022-08-12T19:40:31.930Z,17.40
2022-08-12T19:43:18.832Z,17.23
2022-08-12T19:45:53.782Z,16.96
2022-08-12T19:48:24.022Z,16.87
2022-08-12T19:50:57.774Z,16.93
2022-08-12T19:53:27.614Z,16.81
2022-08-12T19:55:57.498Z,16.73
2022-08-12T19:58:25.348Z,16.77
2022-08-12T20:00:55.765Z,16.78
2022-08-12T20:03:38.664Z,16.89
2022-08-12T20:06:16.010Z,16.73
2022-08-12T20:08:49.355Z,16.48
2022-08-12T20:12:13.401Z,16.28
2022-08-12T20:14:12.214Z,16.17
2022-08-12T20:16:52.608Z,16.29
2022-08-12T20:19:52.788Z,16.41
2022-08-12T20:22:23.466Z,16.26
2022-08-12T20:24:55.162Z,16.13
2022-08-12T20:27:29.842Z,16.03
2022-08-12T20:30:12.991Z,15.88
2022-08-12T20:33:00.935Z,15.91
2022-08-12T20:36:05.835Z,15.86
2022-08-12T20:38:26.653Z,15.88
2022-08-12T20:40:55.777Z,15.85
2022-08-12T20:43:28.176Z,15.74
2022-08-12T20:45:58.387Z,15.77
2022-08-12T20:48:29.634Z,15.91
2022-08-12T20:51:04.603Z,15.77
2022-08-12T20:53:58.408Z,15.60
2022-08-12T20:56:33.090Z,15.53
2022-08-12T20:59:20.123Z,15.58
2022-08-12T21:01:48.499Z,15.28
2022-08-12T21:04:36.017Z,15.49
2022-08-12T21:07:08.737Z,15.40
2022-08-12T21:09:47.698Z,15.32
2022-08-12T21:12:28.158Z,15.43
2022-08-12T21:15:23.235Z,15.30
2022-08-12T21:18:08.268Z,15.30
2022-08-12T21:20:36.063Z,15.22
2022-08-12T21:23:05.817Z,15.26
2022-08-12T21:25:36.021Z,15.30
2022-08-12T21:28:12.611Z,15.41
2022-08-12T21:31:11.760Z,15.52
2022-08-12T21:33:31.991Z,15.26
2022-08-12T21:36:14.531Z,15.22
2022-08-12T21:39:18.899Z,15.14
2022-08-12T21:41:50.054Z,15.08
2022-08-12T21:44:24.116Z,15.16
2022-08-12T21:47:21.518Z,15.23
2022-08-12T21:50:06.916Z,15.10
2022-08-12T21:52:41.128Z,15.06
2022-08-12T21:55:18.810Z,15.07
2022-08-12T21:57:54.340Z,15.11
2022-08-12T22:00:32.405Z,15.11
2022-08-12T22:04:01.586Z,15.00
2022-08-12T22:06:25.872Z,15.02
2022-08-12T22:08:59.482Z,15.01
2022-08-12T22:11:42.483Z,14.97
2022-08-12T22:14:21.603Z,14.76
2022-08-12T22:16:53.321Z,15.01
2022-08-12T22:19:22.583Z,14.97
2022-08-12T22:21:52.296Z,14.85
2022-08-12T22:24:26.880Z,14.76
2022-08-12T22:27:28.241Z,14.82
2022-08-12T22:30:16.318Z,14.88
2022-08-12T22:32:49.896Z,14.99
2022-08-12T22:35:56.639Z,14.92
2022-08-12T22:38:21.064Z,14.86
2022-08-12T22:40:52.728Z,14.89
2022-08-12T22:44:01.014Z,14.77
2022-08-12T22:46:52.810Z,14.94
2022-08-12T22:49:36.468Z,15.00
2022-08-12T22:52:12.432Z,14.77
2022-08-12T22:54:59.900Z,14.81
2022-08-12T22:57:49.531Z,14.97
2022-08-12T23:03:49.336Z,14.79
2022-08-12T23:06:26.947Z,14.53
2022-08-12T23:08:54.872Z,14.53
2022-08-12T23:11:23.465Z,14.52
2022-08-12T23:14:03.566Z,14.57
2022-08-12T23:16:34.227Z,14.63
2022-08-12T23:19:10.806Z,14.49
2022-08-12T23:22:05.322Z,14.42
2022-08-12T23:24:56.431Z,14.19
2022-08-12T23:27:51.861Z,14.22
2022-08-12T23:30:32.117Z,14.19
2022-08-12T23:33:02.790Z,14.15
2022-08-12T23:35:53.696Z,14.16
2022-08-12T23:38:31.795Z,13.95
2022-08-12T23:41:00.672Z,14.14
2022-08-12T23:43:39.750Z,14.11
2022-08-12T23:46:11.242Z,14.09
2022-08-12T23:48:38.931Z,14.08
2022-08-12T23:51:22.331Z,14.05
2022-08-12T23:54:07.318Z,14.08
2022-08-12T23:56:36.297Z,13.99
2022-08-12T23:59:06.760Z,13.97
